sensor_id;sensor_type;location;lat;lon;timestamp;pressure;altitude;pressure_sealevel;temperature;humidity
74975;BME280;68459;50.836;19.138;2023-12-07T00:01:29;98676.16;;;-2.39;75.18
74975;BME280;68459;50.836;19.138;2023-12-07T00:04:34;98669.25;;;-2.40;74.90
74975;BME280;68459;50.836;19.138;2023-12-07T00:07:39;98676.16;;;-2.39;75.23
74975;BME280;68459;50.836;19.138;2023-12-07T00:10:43;98670.06;;;-2.39;75.06
74975;BME280;68459;50.836;19.138;2023-12-07T00:13:47;98673.53;;;-2.39;75.09
74975;BME280;68459;50.836;19.138;2023-12-07T00:16:52;98675.19;;;-2.38;74.79
74975;BME280;68459;50.836;19.138;2023-12-07T00:19:56;98676.03;;;-2.37;75.15
74975;BME280;68459;50.836;19.138;2023-12-07T00:23:00;98684.09;;;-2.39;75.40
74975;BME280;68459;50.836;19.138;2023-12-07T00:26:04;98675.34;;;-2.39;75.85
74975;BME280;68459;50.836;19.138;2023-12-07T00:29:08;98676.84;;;-2.37;75.13
74975;BME280;68459;50.836;19.138;2023-12-07T00:32:14;98680.19;;;-2.35;74.97
74975;BME280;68459;50.836;19.138;2023-12-07T00:35:19;98676.44;;;-2.32;75.43
74975;BME280;68459;50.836;19.138;2023-12-07T00:38:24;98678.94;;;-2.31;75.47
74975;BME280;68459;50.836;19.138;2023-12-07T00:41:28;98682.56;;;-2.32;75.63
74975;BME280;68459;50.836;19.138;2023-12-07T00:44:32;98678.94;;;-2.31;75.15
74975;BME280;68459;50.836;19.138;2023-12-07T00:47:37;98677.69;;;-2.27;75.49
74975;BME280;68459;50.836;19.138;2023-12-07T00:50:42;98679.34;;;-2.26;75.77
74975;BME280;68459;50.836;19.138;2023-12-07T00:53:46;98676.03;;;-2.28;75.87
74975;BME280;68459;50.836;19.138;2023-12-07T00:56:50;98679.66;;;-2.29;75.43
74975;BME280;68459;50.836;19.138;2023-12-07T00:59:54;98682.28;;;-2.29;75.90
74975;BME280;68459;50.836;19.138;2023-12-07T01:03:00;98681.00;;;-2.25;75.41
74975;BME280;68459;50.836;19.138;2023-12-07T01:06:04;98692.41;;;-2.24;75.49
74975;BME280;68459;50.836;19.138;2023-12-07T01:09:09;98684.34;;;-2.23;75.51
74975;BME280;68459;50.836;19.138;2023-12-07T01:12:15;98693.66;;;-2.19;75.22
74975;BME280;68459;50.836;19.138;2023-12-07T01:15:19;98695.47;;;-2.19;75.11
74975;BME280;68459;50.836;19.138;2023-12-07T01:18:24;98698.09;;;-2.19;75.86
74975;BME280;68459;50.836;19.138;2023-12-07T01:21:29;98701.59;;;-2.19;75.74
74975;BME280;68459;50.836;19.138;2023-12-07T01:24:33;98702.41;;;-2.18;75.21
74975;BME280;68459;50.836;19.138;2023-12-07T01:27:37;98703.25;;;-2.18;75.82
74975;BME280;68459;50.836;19.138;2023-12-07T01:30:41;98700.59;;;-2.18;75.69
74975;BME280;68459;50.836;19.138;2023-12-07T01:33:46;98697.69;;;-2.14;75.39
74975;BME280;68459;50.836;19.138;2023-12-07T01:36:50;98688.09;;;-2.16;75.00
74975;BME280;68459;50.836;19.138;2023-12-07T01:39:54;98699.50;;;-2.15;75.54
74975;BME280;68459;50.836;19.138;2023-12-07T01:42:59;98703.25;;;-2.18;75.91
74975;BME280;68459;50.836;19.138;2023-12-07T01:46:03;98703.25;;;-2.18;75.72
74975;BME280;68459;50.836;19.138;2023-12-07T01:49:09;98700.47;;;-2.16;75.49
74975;BME280;68459;50.836;19.138;2023-12-07T01:52:13;98705.63;;;-2.14;75.34
74975;BME280;68459;50.836;19.138;2023-12-07T01:55:18;98710.91;;;-2.14;75.29
74975;BME280;68459;50.836;19.138;2023-12-07T01:58:23;98702.13;;;-2.15;75.71
74975;BME280;68459;50.836;19.138;2023-12-07T02:01:27;98703.81;;;-2.14;75.31
74975;BME280;68459;50.836;19.138;2023-12-07T02:04:34;98705.63;;;-2.14;75.38
74975;BME280;68459;50.836;19.138;2023-12-07T02:07:39;98711.72;;;-2.14;75.77
74975;BME280;68459;50.836;19.138;2023-12-07T02:10:44;98712.56;;;-2.13;75.33
74975;BME280;68459;50.836;19.138;2023-12-07T02:13:48;98714.38;;;-2.14;75.68
74975;BME280;68459;50.836;19.138;2023-12-07T02:16:55;98712.56;;;-2.13;75.33
74975;BME280;68459;50.836;19.138;2023-12-07T02:20:09;98721.47;;;-2.14;75.79
74975;BME280;68459;50.836;19.138;2023-12-07T02:23:17;98718.81;;;-2.14;75.75
74975;BME280;68459;50.836;19.138;2023-12-07T02:26:51;98717.84;;;-2.13;75.66
74975;BME280;68459;50.836;19.138;2023-12-07T02:29:55;98716.19;;;-2.14;75.68
74975;BME280;68459;50.836;19.138;2023-12-07T02:32:59;98708.41;;;-2.16;75.68
74975;BME280;68459;50.836;19.138;2023-12-07T02:36:04;98721.59;;;-2.16;75.47
74975;BME280;68459;50.836;19.138;2023-12-07T02:39:08;98725.22;;;-2.17;75.80
74975;BME280;68459;50.836;19.138;2023-12-07T02:42:16;98721.75;;;-2.18;75.46
74975;BME280;68459;50.836;19.138;2023-12-07T02:45:21;98723.69;;;-2.20;75.81
74975;BME280;68459;50.836;19.138;2023-12-07T02:48:25;98727.31;;;-2.21;75.59
74975;BME280;68459;50.836;19.138;2023-12-07T02:51:29;98734.53;;;-2.23;76.13
74975;BME280;68459;50.836;19.138;2023-12-07T02:54:33;98733.56;;;-2.22;76.24
74975;BME280;68459;50.836;19.138;2023-12-07T02:57:38;98739.81;;;-2.23;75.92
74975;BME280;68459;50.836;19.138;2023-12-07T03:00:43;98728.41;;;-2.23;76.10
74975;BME280;68459;50.836;19.138;2023-12-07T03:03:47;98726.75;;;-2.24;76.40
74975;BME280;68459;50.836;19.138;2023-12-07T03:06:52;98723.97;;;-2.23;76.08
74975;BME280;68459;50.836;19.138;2023-12-07T03:09:56;98731.88;;;-2.23;76.25
74975;BME280;68459;50.836;19.138;2023-12-07T03:13:01;98740.66;;;-2.22;76.30
74975;BME280;68459;50.836;19.138;2023-12-07T03:16:08;98737.16;;;-2.23;75.97
74975;BME280;68459;50.836;19.138;2023-12-07T03:19:13;98741.47;;;-2.22;76.39
74975;BME280;68459;50.836;19.138;2023-12-07T03:22:17;98739.81;;;-2.23;75.99
74975;BME280;68459;50.836;19.138;2023-12-07T03:25:22;98744.13;;;-2.22;76.75
74975;BME280;68459;50.836;19.138;2023-12-07T03:28:27;98742.31;;;-2.21;76.50
74975;BME280;68459;50.836;19.138;2023-12-07T03:31:31;98737.59;;;-2.18;76.03
74975;BME280;68459;50.836;19.138;2023-12-07T03:34:35;98751.50;;;-2.16;76.15
74975;BME280;68459;50.836;19.138;2023-12-07T03:37:39;98742.75;;;-2.16;76.46
74975;BME280;68459;50.836;19.138;2023-12-07T03:40:43;98744.28;;;-2.13;76.76
74975;BME280;68459;50.836;19.138;2023-12-07T03:43:52;98744.78;;;-2.10;76.65
74975;BME280;68459;50.836;19.138;2023-12-07T03:46:56;98748.28;;;-2.09;76.23
74975;BME280;68459;50.836;19.138;2023-12-07T03:50:00;98743.69;;;-2.07;76.68
74975;BME280;68459;50.836;19.138;2023-12-07T03:53:04;98748.00;;;-2.06;76.47
74975;BME280;68459;50.836;19.138;2023-12-07T03:56:08;98746.19;;;-2.06;76.62
74975;BME280;68459;50.836;19.138;2023-12-07T03:59:14;98752.16;;;-2.04;76.83
74975;BME280;68459;50.836;19.138;2023-12-07T04:02:18;98752.03;;;-2.02;76.42
74975;BME280;68459;50.836;19.138;2023-12-07T04:05:22;98759.00;;;-2.01;76.27
74975;BME280;68459;50.836;19.138;2023-12-07T04:08:26;98759.66;;;-1.99;76.79
74975;BME280;68459;50.836;19.138;2023-12-07T04:11:29;98760.06;;;-1.94;76.74
74975;BME280;68459;50.836;19.138;2023-12-07T04:14:35;98764.25;;;-1.92;76.50
74975;BME280;68459;50.836;19.138;2023-12-07T04:17:39;98760.78;;;-1.92;76.93
74975;BME280;68459;50.836;19.138;2023-12-07T04:20:43;98758.69;;;-1.89;76.09
74975;BME280;68459;50.836;19.138;2023-12-07T04:23:47;98753.25;;;-1.87;76.82
74975;BME280;68459;50.836;19.138;2023-12-07T04:26:51;98754.22;;;-1.88;76.21
74975;BME280;68459;50.836;19.138;2023-12-07T04:29:56;98759.53;;;-1.88;76.80
74975;BME280;68459;50.836;19.138;2023-12-07T04:33:00;98759.53;;;-1.88;76.09
74975;BME280;68459;50.836;19.138;2023-12-07T04:36:06;98763.13;;;-1.89;76.49
74975;BME280;68459;50.836;19.138;2023-12-07T04:39:11;98759.38;;;-1.87;76.27
74975;BME280;68459;50.836;19.138;2023-12-07T04:42:14;98766.47;;;-1.87;76.66
74975;BME280;68459;50.836;19.138;2023-12-07T04:45:20;98768.13;;;-1.86;76.40
74975;BME280;68459;50.836;19.138;2023-12-07T04:48:24;98770.09;;;-1.88;76.34
74975;BME280;68459;50.836;19.138;2023-12-07T04:51:29;98775.06;;;-1.85;76.42
74975;BME280;68459;50.836;19.138;2023-12-07T04:54:32;98777.56;;;-1.84;76.26
74975;BME280;68459;50.836;19.138;2023-12-07T04:57:36;98783.41;;;-1.80;76.54
74975;BME280;68459;50.836;19.138;2023-12-07T05:00:42;98785.09;;;-1.79;76.07
74975;BME280;68459;50.836;19.138;2023-12-07T05:03:46;98787.59;;;-1.77;76.99
74975;BME280;68459;50.836;19.138;2023-12-07T05:06:50;98793.44;;;-1.74;76.69
74975;BME280;68459;50.836;19.138;2023-12-07T05:09:54;98797.72;;;-1.73;76.82
74975;BME280;68459;50.836;19.138;2023-12-07T05:12:58;98792.44;;;-1.73;76.92
74975;BME280;68459;50.836;19.138;2023-12-07T05:16:05;98802.03;;;-1.72;76.03
74975;BME280;68459;50.836;19.138;2023-12-07T05:19:08;98802.72;;;-1.70;76.50
74975;BME280;68459;50.836;19.138;2023-12-07T05:22:14;98803.69;;;-1.71;76.80
74975;BME280;68459;50.836;19.138;2023-12-07T05:25:18;98820.41;;;-1.70;76.64
74975;BME280;68459;50.836;19.138;2023-12-07T05:28:22;98814.84;;;-1.67;76.52
74975;BME280;68459;50.836;19.138;2023-12-07T05:31:27;98820.13;;;-1.67;76.68
74975;BME280;68459;50.836;19.138;2023-12-07T05:34:32;98812.88;;;-1.65;76.85
74975;BME280;68459;50.836;19.138;2023-12-07T05:37:37;98820.41;;;-1.61;76.66
74975;BME280;68459;50.836;19.138;2023-12-07T05:40:41;98823.56;;;-1.57;76.48
74975;BME280;68459;50.836;19.138;2023-12-07T05:43:45;98827.88;;;-1.56;76.50
74975;BME280;68459;50.836;19.138;2023-12-07T05:46:51;98827.75;;;-1.55;nan
74975;BME280;68459;50.836;19.138;2023-12-07T05:49:56;98825.09;;;-1.55;76.74
74975;BME280;68459;50.836;19.138;2023-12-07T05:53:02;98839.28;;;-1.56;76.58
74975;BME280;68459;50.836;19.138;2023-12-07T05:56:06;98838.47;;;-1.56;76.09
74975;BME280;68459;50.836;19.138;2023-12-07T05:59:11;98837.63;;;-1.57;76.69
74975;BME280;68459;50.836;19.138;2023-12-07T06:02:16;98839.44;;;-1.57;76.70
74975;BME280;68459;50.836;19.138;2023-12-07T06:05:20;98847.38;;;-1.57;76.36
74975;BME280;68459;50.836;19.138;2023-12-07T06:08:24;98839.44;;;-1.57;76.59
74975;BME280;68459;50.836;19.138;2023-12-07T06:11:28;98844.88;;;-1.59;76.39
74975;BME280;68459;50.836;19.138;2023-12-07T06:14:33;98857.25;;;-1.59;76.83
74975;BME280;68459;50.836;19.138;2023-12-07T06:17:39;98853.75;;;-1.60;76.29
74975;BME280;68459;50.836;19.138;2023-12-07T06:20:42;98858.38;;;-1.62;76.43
74975;BME280;68459;50.836;19.138;2023-12-07T06:23:47;98858.53;;;-1.63;76.78
74975;BME280;68459;50.836;19.138;2023-12-07T06:26:51;98859.50;;;-1.64;76.52
74975;BME280;68459;50.836;19.138;2023-12-07T06:29:55;98847.13;;;-1.64;76.80
74975;BME280;68459;50.836;19.138;2023-12-07T06:33:01;98851.44;;;-1.63;76.76
74975;BME280;68459;50.836;19.138;2023-12-07T06:36:05;98855.75;;;-1.62;76.29
74975;BME280;68459;50.836;19.138;2023-12-07T06:39:10;98863.53;;;-1.60;76.60
74975;BME280;68459;50.836;19.138;2023-12-07T06:42:14;98864.34;;;-1.60;76.38
74975;BME280;68459;50.836;19.138;2023-12-07T06:45:18;98868.97;;;-1.62;76.79
74975;BME280;68459;50.836;19.138;2023-12-07T06:48:24;98871.47;;;-1.60;77.01
74975;BME280;68459;50.836;19.138;2023-12-07T06:51:27;98885.50;;;-1.60;76.75
74975;BME280;68459;50.836;19.138;2023-12-07T06:54:31;98893.84;;;-1.55;77.14
74975;BME280;68459;50.836;19.138;2023-12-07T06:57:35;98887.59;;;-1.54;77.08
74975;BME280;68459;50.836;19.138;2023-12-07T07:00:39;98895.25;;;-1.51;76.67
74975;BME280;68459;50.836;19.138;2023-12-07T07:03:44;98894.81;;;-1.46;76.77
74975;BME280;68459;50.836;19.138;2023-12-07T07:06:49;98889.25;;;-1.43;76.46
74975;BME280;68459;50.836;19.138;2023-12-07T07:09:53;98882.97;;;-1.42;76.75
74975;BME280;68459;50.836;19.138;2023-12-07T07:12:59;98888.81;;;-1.38;76.48
74975;BME280;68459;50.836;19.138;2023-12-07T07:16:07;98899.13;;;-1.35;76.78
74975;BME280;68459;50.836;19.138;2023-12-07T07:19:14;98899.66;;;-1.32;77.04
74975;BME280;68459;50.836;19.138;2023-12-07T07:22:19;98895.91;;;-1.29;76.76
74975;BME280;68459;50.836;19.138;2023-12-07T07:25:23;98894.91;;;-1.28;76.93
74975;BME280;68459;50.836;19.138;2023-12-07T07:28:26;98897.44;;;-1.27;76.76
74975;BME280;68459;50.836;19.138;2023-12-07T07:31:31;98891.16;;;-1.26;77.03
74975;BME280;68459;50.836;19.138;2023-12-07T07:34:36;98903.28;;;-1.23;77.35
74975;BME280;68459;50.836;19.138;2023-12-07T07:37:43;98901.31;;;-1.21;76.85
74975;BME280;68459;50.836;19.138;2023-12-07T07:40:47;98901.00;;;-1.18;76.51
74975;BME280;68459;50.836;19.138;2023-12-07T07:43:51;98895.44;;;-1.15;76.23
74975;BME280;68459;50.836;19.138;2023-12-07T07:46:54;98891.81;;;-1.14;76.88
74975;BME280;68459;50.836;19.138;2023-12-07T07:50:00;98895.72;;;-1.09;76.34
74975;BME280;68459;50.836;19.138;2023-12-07T07:53:07;98892.63;;;-1.04;77.36
74975;BME280;68459;50.836;19.138;2023-12-07T07:56:12;98891.22;;;-0.98;77.58
74975;BME280;68459;50.836;19.138;2023-12-07T07:59:15;98891.78;;;-0.95;76.96
74975;BME280;68459;50.836;19.138;2023-12-07T08:02:20;98904.41;;;-0.89;76.92
74975;BME280;68459;50.836;19.138;2023-12-07T08:05:25;98895.22;;;-0.85;76.94
74975;BME280;68459;50.836;19.138;2023-12-07T08:08:29;98898.22;;;-0.80;76.74
74975;BME280;68459;50.836;19.138;2023-12-07T08:11:33;98906.88;;;-0.78;76.89
74975;BME280;68459;50.836;19.138;2023-12-07T08:14:37;98902.41;;;-0.77;76.28
74975;BME280;68459;50.836;19.138;2023-12-07T08:17:42;98904.91;;;-0.76;77.01
74975;BME280;68459;50.836;19.138;2023-12-07T08:20:47;98907.00;;;-0.69;76.39
74975;BME280;68459;50.836;19.138;2023-12-07T08:23:51;98911.97;;;-0.66;76.56
74975;BME280;68459;50.836;19.138;2023-12-07T08:26:55;98912.81;;;-0.66;76.93
74975;BME280;68459;50.836;19.138;2023-12-07T08:29:59;98914.47;;;-0.65;76.68
74975;BME280;68459;50.836;19.138;2023-12-07T08:33:03;98918.66;;;-0.62;76.91
74975;BME280;68459;50.836;19.138;2023-12-07T08:36:09;98925.34;;;-0.58;76.51
74975;BME280;68459;50.836;19.138;2023-12-07T08:39:14;98931.19;;;-0.55;76.71
74975;BME280;68459;50.836;19.138;2023-12-07T08:42:18;98935.19;;;-0.51;76.87
74975;BME280;68459;50.836;19.138;2023-12-07T08:45:22;98940.19;;;-0.48;76.66
74975;BME280;68459;50.836;19.138;2023-12-07T08:48:27;98951.19;;;-0.43;76.33
74975;BME280;68459;50.836;19.138;2023-12-07T08:51:32;98944.78;;;-0.40;76.72
74975;BME280;68459;50.836;19.138;2023-12-07T08:54:36;98942.50;;;-0.35;76.39
74975;BME280;68459;50.836;19.138;2023-12-07T08:57:40;98944.03;;;-0.32;76.93
74975;BME280;68459;50.836;19.138;2023-12-07T09:00:44;98939.97;;;-0.27;76.46
74975;BME280;68459;50.836;19.138;2023-12-07T09:03:48;98946.31;;;-0.20;76.37
74975;BME280;68459;50.836;19.138;2023-12-07T09:06:54;98950.50;;;-0.17;76.04
74975;BME280;68459;50.836;19.138;2023-12-07T09:09:59;98956.03;;;-0.11;76.63
74975;BME280;68459;50.836;19.138;2023-12-07T09:13:03;98951.81;;;-0.04;76.53
74975;BME280;68459;50.836;19.138;2023-12-07T09:16:08;98945.91;;;0.03;76.32
74975;BME280;68459;50.836;19.138;2023-12-07T09:19:12;98940.69;;;0.11;76.54
74975;BME280;68459;50.836;19.138;2023-12-07T09:22:18;98944.09;;;0.21;76.38
74975;BME280;68459;50.836;19.138;2023-12-07T09:25:29;98940.84;;;0.27;76.39
74975;BME280;68459;50.836;19.138;2023-12-07T09:28:34;98942.06;;;0.32;76.20
74975;BME280;68459;50.836;19.138;2023-12-07T09:31:38;98940.47;;;0.40;76.24
74975;BME280;68459;50.836;19.138;2023-12-07T09:34:42;98941.47;;;0.39;75.97
74975;BME280;68459;50.836;19.138;2023-12-07T09:37:48;98941.97;;;0.42;75.98
74975;BME280;68459;50.836;19.138;2023-12-07T09:40:52;98933.03;;;0.43;75.75
74975;BME280;68459;50.836;19.138;2023-12-07T09:43:57;98935.38;;;0.46;75.79
74975;BME280;68459;50.836;19.138;2023-12-07T09:47:02;98939.13;;;0.53;76.04
74975;BME280;68459;50.836;19.138;2023-12-07T09:50:08;98938.09;;;0.54;76.01
74975;BME280;68459;50.836;19.138;2023-12-07T09:53:14;98939.63;;;0.57;75.96
74975;BME280;68459;50.836;19.138;2023-12-07T09:56:18;98938.47;;;0.59;75.40
74975;BME280;68459;50.836;19.138;2023-12-07T09:59:22;98934.84;;;0.60;75.66
74975;BME280;68459;50.836;19.138;2023-12-07T10:02:26;98940.16;;;0.60;75.62
74975;BME280;68459;50.836;19.138;2023-12-07T10:05:31;98935.38;;;0.64;75.74
74975;BME280;68459;50.836;19.138;2023-12-07T10:08:36;98931.59;;;0.66;75.57
74975;BME280;68459;50.836;19.138;2023-12-07T10:11:41;98930.56;;;0.67;75.63
74975;BME280;68459;50.836;19.138;2023-12-07T10:14:46;98927.47;;;0.72;75.69
74975;BME280;68459;50.836;19.138;2023-12-07T10:17:52;98936.78;;;0.76;75.52
74975;BME280;68459;50.836;19.138;2023-12-07T10:20:57;98931.34;;;0.78;75.27
74975;BME280;68459;50.836;19.138;2023-12-07T10:24:03;98936.66;;;0.78;75.72
74975;BME280;68459;50.836;19.138;2023-12-07T10:27:08;98933.00;;;0.79;75.33
74975;BME280;68459;50.836;19.138;2023-12-07T10:30:12;98936.31;;;0.81;75.56
74975;BME280;68459;50.836;19.138;2023-12-07T10:33:16;98937.97;;;0.82;75.43
74975;BME280;68459;50.836;19.138;2023-12-07T10:36:21;98939.66;;;0.83;75.51
74975;BME280;68459;50.836;19.138;2023-12-07T10:39:26;98935.31;;;0.82;75.43
74975;BME280;68459;50.836;19.138;2023-12-07T10:42:38;98943.13;;;0.83;75.33
74975;BME280;68459;50.836;19.138;2023-12-07T10:45:47;98937.97;;;0.82;75.38
74975;BME280;68459;50.836;19.138;2023-12-07T10:48:54;98933.66;;;0.81;75.31
74975;BME280;68459;50.836;19.138;2023-12-07T10:52:06;98939.16;;;0.79;75.29
74975;BME280;68459;50.836;19.138;2023-12-07T10:55:16;98941.47;;;0.82;75.57
74975;BME280;68459;50.836;19.138;2023-12-07T10:58:22;98935.16;;;0.83;75.36
74975;BME280;68459;50.836;19.138;2023-12-07T11:01:29;98940.63;;;0.82;75.22
74975;BME280;68459;50.836;19.138;2023-12-07T11:04:35;98937.97;;;0.82;75.33
74975;BME280;68459;50.836;19.138;2023-12-07T11:07:48;98936.16;;;0.82;75.45
74975;BME280;68459;50.836;19.138;2023-12-07T11:11:04;98929.03;;;0.83;75.19
74975;BME280;68459;50.836;19.138;2023-12-07T11:14:12;98941.47;;;0.82;75.22
74975;BME280;68459;50.836;19.138;2023-12-07T11:17:17;98933.66;;;0.81;75.44
74975;BME280;68459;50.836;19.138;2023-12-07T11:20:21;98939.97;;;0.80;75.44
74975;BME280;68459;50.836;19.138;2023-12-07T11:23:27;98939.97;;;0.80;75.67
74975;BME280;68459;50.836;19.138;2023-12-07T11:26:33;98933.16;;;0.77;75.30
74975;BME280;68459;50.836;19.138;2023-12-07T11:29:37;98935.66;;;0.79;75.35
74975;BME280;68459;50.836;19.138;2023-12-07T11:32:41;98932.03;;;0.80;75.40
74975;BME280;68459;50.836;19.138;2023-12-07T11:36:03;98932.66;;;0.82;75.39
74975;BME280;68459;50.836;19.138;2023-12-07T11:39:17;98933.84;;;0.79;75.74
74975;BME280;68459;50.836;19.138;2023-12-07T11:42:32;98932.16;;;0.78;75.48
74975;BME280;68459;50.836;19.138;2023-12-07T11:45:40;98928.53;;;0.79;75.45
74975;BME280;68459;50.836;19.138;2023-12-07T11:48:47;98928.34;;;0.81;75.54
74975;BME280;68459;50.836;19.138;2023-12-07T11:51:52;98925.88;;;0.79;75.05
74975;BME280;68459;50.836;19.138;2023-12-07T11:54:56;98929.66;;;0.77;75.22
74975;BME280;68459;50.836;19.138;2023-12-07T11:58:01;98929.38;;;0.80;75.68
74975;BME280;68459;50.836;19.138;2023-12-07T12:01:06;98925.69;;;0.81;75.30
74975;BME280;68459;50.836;19.138;2023-12-07T12:04:11;98924.06;;;0.80;75.24
74975;BME280;68459;50.836;19.138;2023-12-07T12:07:15;98923.22;;;0.79;75.50
74975;BME280;68459;50.836;19.138;2023-12-07T12:10:19;98930.16;;;0.80;75.71
74975;BME280;68459;50.836;19.138;2023-12-07T12:13:28;98925.22;;;0.85;75.77
74975;BME280;68459;50.836;19.138;2023-12-07T12:16:32;98919.63;;;0.88;75.73
74975;BME280;68459;50.836;19.138;2023-12-07T12:19:36;98925.75;;;0.89;75.42
74975;BME280;68459;50.836;19.138;2023-12-07T12:22:41;98940.19;;;0.86;75.58
74975;BME280;68459;50.836;19.138;2023-12-07T12:25:45;98933.50;;;0.82;75.40
74975;BME280;68459;50.836;19.138;2023-12-07T12:28:50;98926.84;;;0.78;75.48
74975;BME280;68459;50.836;19.138;2023-12-07T12:31:54;98933.47;;;0.74;75.47
74975;BME280;68459;50.836;19.138;2023-12-07T12:34:58;98925.78;;;0.71;75.70
74975;BME280;68459;50.836;19.138;2023-12-07T12:38:09;98932.91;;;0.70;75.82
74975;BME280;68459;50.836;19.138;2023-12-07T12:41:29;98933.91;;;0.69;76.02
74975;BME280;68459;50.836;19.138;2023-12-07T12:44:36;98932.25;;;0.68;76.31
74975;BME280;68459;50.836;19.138;2023-12-07T12:47:41;98932.25;;;0.68;75.79
74975;BME280;68459;50.836;19.138;2023-12-07T12:50:46;98930.56;;;0.67;76.28
74975;BME280;68459;50.836;19.138;2023-12-07T12:53:51;98929.91;;;0.65;75.86
74975;BME280;68459;50.836;19.138;2023-12-07T12:56:56;98929.72;;;0.67;75.96
74975;BME280;68459;50.836;19.138;2023-12-07T13:00:03;98922.78;;;0.66;75.64
74975;BME280;68459;50.836;19.138;2023-12-07T13:03:09;98931.59;;;0.66;75.95
74975;BME280;68459;50.836;19.138;2023-12-07T13:06:16;98931.75;;;0.65;75.71
74975;BME280;68459;50.836;19.138;2023-12-07T13:09:20;98927.56;;;0.62;75.71
74975;BME280;68459;50.836;19.138;2023-12-07T13:12:25;98934.84;;;0.60;76.26
74975;BME280;68459;50.836;19.138;2023-12-07T13:15:31;98938.47;;;0.59;76.14
74975;BME280;68459;50.836;19.138;2023-12-07T13:18:35;98937.44;;;0.52;76.12
74975;BME280;68459;50.836;19.138;2023-12-07T13:21:38;98935.22;;;0.48;76.45
74975;BME280;68459;50.836;19.138;2023-12-07T13:24:45;98941.06;;;0.51;76.38
74975;BME280;68459;50.836;19.138;2023-12-07T13:27:51;98941.38;;;0.48;75.76
74975;BME280;68459;50.836;19.138;2023-12-07T13:30:58;98952.59;;;0.42;76.10
74975;BME280;68459;50.836;19.138;2023-12-07T13:34:02;98954.19;;;0.35;76.29
74975;BME280;68459;50.836;19.138;2023-12-07T13:37:13;98958.13;;;0.31;76.28
74975;BME280;68459;50.836;19.138;2023-12-07T13:40:17;98956.94;;;0.25;76.67
74975;BME280;68459;50.836;19.138;2023-12-07T13:43:21;98965.88;;;0.24;76.27
74975;BME280;68459;50.836;19.138;2023-12-07T13:46:27;98963.66;;;0.20;76.46
74975;BME280;68459;50.836;19.138;2023-12-07T13:49:32;98961.84;;;0.20;76.34
74975;BME280;68459;50.836;19.138;2023-12-07T13:52:36;98971.75;;;0.18;76.70
74975;BME280;68459;50.836;19.138;2023-12-07T13:55:40;98964.94;;;0.16;76.30
74975;BME280;68459;50.836;19.138;2023-12-07T13:58:45;98969.41;;;0.15;76.66
74975;BME280;68459;50.836;19.138;2023-12-07T14:01:50;98978.34;;;0.14;76.98
74975;BME280;68459;50.836;19.138;2023-12-07T14:04:54;98980.16;;;0.14;76.59
74975;BME280;68459;50.836;19.138;2023-12-07T14:07:58;98975.84;;;0.13;76.97
74975;BME280;68459;50.836;19.138;2023-12-07T14:11:02;98979.63;;;0.10;76.48
74975;BME280;68459;50.836;19.138;2023-12-07T14:14:06;98975.47;;;0.08;77.09
74975;BME280;68459;50.836;19.138;2023-12-07T14:17:11;98989.16;;;0.03;76.74
74975;BME280;68459;50.836;19.138;2023-12-07T14:20:16;98990.59;;;-0.03;77.21
74975;BME280;68459;50.836;19.138;2023-12-07T14:23:40;98995.22;;;-0.05;77.41
74975;BME280;68459;50.836;19.138;2023-12-07T14:26:53;98986.44;;;-0.05;77.25
74975;BME280;68459;50.836;19.138;2023-12-07T14:29:57;98999.81;;;-0.07;76.92
74975;BME280;68459;50.836;19.138;2023-12-07T14:33:03;98998.00;;;-0.06;77.40
74975;BME280;68459;50.836;19.138;2023-12-07T14:36:10;99000.66;;;-0.06;77.39
74975;BME280;68459;50.836;19.138;2023-12-07T14:39:15;99000.13;;;-0.10;77.12
74975;BME280;68459;50.836;19.138;2023-12-07T14:42:19;99001.78;;;-0.09;77.30
74975;BME280;68459;50.836;19.138;2023-12-07T14:45:24;99005.13;;;-0.07;77.38
74975;BME280;68459;50.836;19.138;2023-12-07T14:48:29;99016.56;;;-0.06;77.36
74975;BME280;68459;50.836;19.138;2023-12-07T14:51:34;99010.72;;;-0.10;77.17
74975;BME280;68459;50.836;19.138;2023-12-07T14:54:37;99015.19;;;-0.10;77.57
74975;BME280;68459;50.836;19.138;2023-12-07T14:57:42;99011.31;;;-0.16;77.67
74975;BME280;68459;50.836;19.138;2023-12-07T15:00:46;99004.63;;;-0.20;78.01
74975;BME280;68459;50.836;19.138;2023-12-07T15:03:52;99005.91;;;-0.24;77.73
74975;BME280;68459;50.836;19.138;2023-12-07T15:06:56;99007.03;;;-0.26;77.58
74975;BME280;68459;50.836;19.138;2023-12-07T15:10:00;99010.97;;;-0.30;77.58
74975;BME280;68459;50.836;19.138;2023-12-07T15:13:05;99018.09;;;-0.31;77.96
74975;BME280;68459;50.836;19.138;2023-12-07T15:16:09;99016.28;;;-0.30;77.89
74975;BME280;68459;50.836;19.138;2023-12-07T15:19:15;99014.44;;;-0.30;77.63
74975;BME280;68459;50.836;19.138;2023-12-07T15:22:19;99016.13;;;-0.29;78.16
74975;BME280;68459;50.836;19.138;2023-12-07T15:25:25;99014.16;;;-0.27;77.89
74975;BME280;68459;50.836;19.138;2023-12-07T15:28:31;99003.56;;;-0.27;77.90
74975;BME280;68459;50.836;19.138;2023-12-07T15:31:35;99020.28;;;-0.26;78.06
74975;BME280;68459;50.836;19.138;2023-12-07T15:34:40;99011.34;;;-0.25;77.96
74975;BME280;68459;50.836;19.138;2023-12-07T15:37:44;99016.50;;;-0.24;78.31
74975;BME280;68459;50.836;19.138;2023-12-07T15:40:49;99009.38;;;-0.23;78.20
74975;BME280;68459;50.836;19.138;2023-12-07T15:43:54;99015.38;;;-0.21;78.17
74975;BME280;68459;50.836;19.138;2023-12-07T15:46:58;99012.44;;;-0.18;78.23
74975;BME280;68459;50.836;19.138;2023-12-07T15:50:04;99023.03;;;-0.18;78.03
74975;BME280;68459;50.836;19.138;2023-12-07T15:53:09;99028.50;;;-0.20;78.03
74975;BME280;68459;50.836;19.138;2023-12-07T15:56:13;99026.81;;;-0.21;78.41
74975;BME280;68459;50.836;19.138;2023-12-07T15:59:25;99024.16;;;-0.21;78.33
74975;BME280;68459;50.836;19.138;2023-12-07T16:02:29;99018.88;;;-0.21;78.16
74975;BME280;68459;50.836;19.138;2023-12-07T16:05:35;99033.94;;;-0.21;78.06
74975;BME280;68459;50.836;19.138;2023-12-07T16:08:38;99033.09;;;-0.22;78.44
74975;BME280;68459;50.836;19.138;2023-12-07T16:11:42;99037.56;;;-0.22;78.56